Time;durP1;ratioP1;P1;durP2;ratioP2;P2;SDS_P1;SDS_P2;PMS_P1;PMS_P2;Temp;Humidity;BMP_temperature;BMP_pressure;BME280_temperature;BME280_humidity;BME280_pressure;Samples;Min_cycle;Max_cycle;Signal;HPM_P1;HPM_P2
2020/12/15 00:00:53;;;;;;;46.77;18.23;;;;;;;2.94;100.00;101258.59;1827327;78;20916;-57
2020/12/15 00:03:21;;;;;;;57.25;21.10;;;;;;;2.93;100.00;101278.02;1827286;77;21125;-56
2020/12/15 00:05:49;;;;;;;53.35;19.35;;;;;;;2.92;100.00;101280.22;1827398;78;21125;-56
2020/12/15 00:08:16;;;;;;;46.68;19.30;;;;;;;2.91;100.00;101273.16;1827414;78;21364;-56
2020/12/15 00:10:44;;;;;;;45.38;19.92;;;;;;;2.91;100.00;101286.40;1827240;78;21065;-55
2020/12/15 00:13:11;;;;;;;47.33;18.45;;;;;;;2.89;100.00;101284.18;1827386;78;21059;-56
2020/12/15 00:15:40;;;;;;;47.13;19.30;;;;;;;2.87;100.00;101276.21;1827381;78;21178;-56
2020/12/15 00:18:08;;;;;;;41.85;17.82;;;;;;;2.86;100.00;101291.23;1827466;78;21473;-56
2020/12/15 00:20:41;;;;;;;48.95;20.17;;;;;;;2.89;100.00;101282.44;1827287;78;21683;-55
2020/12/15 00:23:08;;;;;;;39.15;17.27;;;;;;;2.90;100.00;101276.68;1827280;78;21118;-56
2020/12/15 00:25:36;;;;;;;45.12;19.52;;;;;;;2.92;100.00;101284.19;1827354;78;20877;-56
2020/12/15 00:28:04;;;;;;;52.80;19.48;;;;;;;2.93;100.00;101295.23;1827311;78;21071;-57
2020/12/15 00:30:31;;;;;;;42.25;18.77;;;;;;;2.93;100.00;101288.61;1827567;78;21086;-55
2020/12/15 00:32:59;;;;;;;47.83;19.57;;;;;;;2.94;100.00;101299.23;1827449;77;21348;-56
2020/12/15 00:35:27;;;;;;;44.83;19.30;;;;;;;2.95;100.00;101292.16;1827458;78;21059;-55
2020/12/15 00:37:55;;;;;;;44.25;18.07;;;;;;;2.96;100.00;101308.48;1780794;79;21504;-56
2020/12/15 00:40:23;;;;;;;48.00;19.90;;;;;;;2.94;100.00;101285.08;1807425;79;21041;-56
2020/12/15 00:42:50;;;;;;;48.52;19.20;;;;;;;2.93;100.00;101307.16;1806157;79;21072;-55
2020/12/15 00:45:18;;;;;;;41.68;18.98;;;;;;;2.92;100.00;101296.11;1799504;79;21449;-56
2020/12/15 00:47:45;;;;;;;49.23;21.07;;;;;;;2.92;100.00;101296.11;1799303;79;21103;-56
2020/12/15 00:50:13;;;;;;;41.55;18.60;;;;;;;2.92;100.00;101293.47;1799512;79;21055;-55
2020/12/15 00:52:40;;;;;;;41.90;18.50;;;;;;;2.89;100.00;101308.92;1799423;79;21131;-55
2020/12/15 00:55:08;;;;;;;38.17;16.42;;;;;;;2.86;100.00;101303.16;1799468;79;21119;-55
2020/12/15 00:57:37;;;;;;;44.50;19.65;;;;;;;2.84;100.00;101305.33;1799562;79;21582;-56
2020/12/15 01:00:09;;;;;;;43.65;17.73;;;;;;;2.79;100.00;101296.48;1799388;79;21044;-57
2020/12/15 01:02:37;;;;;;;45.98;19.17;;;;;;;2.76;100.00;101306.61;1799417;79;21202;-56
2020/12/15 01:05:06;;;;;;;49.42;19.85;;;;;;;2.74;100.00;101293.80;1799429;79;21096;-56
2020/12/15 01:07:34;;;;;;;40.38;17.65;;;;;;;2.74;100.00;101299.09;1799564;79;21473;-56
2020/12/15 01:10:04;;;;;;;43.45;19.70;;;;;;;2.71;100.00;101313.22;1799401;79;21343;-56
2020/12/15 01:12:33;;;;;;;45.58;18.95;;;;;;;2.71;100.00;101289.81;1799429;79;21471;-56
2020/12/15 01:15:02;;;;;;;50.17;20.25;;;;;;;2.71;100.00;101288.48;1799495;79;21460;-56
2020/12/15 01:17:30;;;;;;;49.38;18.15;;;;;;;2.71;100.00;101288.48;1799336;79;21119;-56
2020/12/15 01:19:57;;;;;;;49.20;18.00;;;;;;;2.72;100.00;101310.12;1799373;79;21122;-56
2020/12/15 01:22:25;;;;;;;48.58;21.37;;;;;;;2.73;100.00;101296.00;1799429;79;21549;-56
2020/12/15 01:24:53;;;;;;;48.30;20.23;;;;;;;2.71;100.00;101296.44;1799333;79;21076;-56
2020/12/15 01:27:30;;;;;;;40.07;18.00;;;;;;;2.75;100.00;101292.92;1873091;76;22658;-55
2020/12/15 01:30:04;;;;;;;48.58;19.35;;;;;;;2.69;100.00;101300.41;1840658;78;20974;-56
2020/12/15 01:32:49;;;;;;;44.10;19.27;;;;;;;2.68;100.00;101317.59;1841020;78;21359;-55
2020/12/15 01:35:18;;;;;;;45.85;17.35;;;;;;;2.66;100.00;101307.44;1841025;78;20926;-56
2020/12/15 01:37:46;;;;;;;43.75;19.25;;;;;;;2.67;100.00;101310.53;1828231;78;20940;-56
2020/12/15 01:40:16;;;;;;;53.85;19.87;;;;;;;2.67;100.00;101305.23;1824677;78;20999;-56
2020/12/15 01:42:44;;;;;;;45.55;18.60;;;;;;;2.67;100.00;101305.23;1824994;78;20968;-56
2020/12/15 01:45:12;;;;;;;40.83;17.30;;;;;;;2.69;100.00;101308.78;1824910;78;21364;-56
2020/12/15 01:47:41;;;;;;;41.10;18.12;;;;;;;2.70;100.00;101306.16;1824963;78;20931;-56
2020/12/15 01:50:10;;;;;;;45.03;18.85;;;;;;;2.69;100.00;101304.80;1825064;78;21720;-56
2020/12/15 01:52:38;;;;;;;44.70;20.30;;;;;;;2.66;100.00;101327.30;1825001;78;20972;-56
2020/12/15 01:55:07;;;;;;;46.55;19.35;;;;;;;2.63;100.00;101321.98;1824903;78;21082;-56
2020/12/15 01:57:45;;;;;;;42.30;17.93;;;;;;;2.68;100.00;101318.92;1845036;76;20888;-56
2020/12/15 02:00:14;;;;;;;47.00;18.35;;;;;;;2.65;100.00;101321.13;1812846;79;20930;-57
2020/12/15 02:02:44;;;;;;;44.73;20.37;;;;;;;2.64;100.00;101339.19;1814923;79;21192;-56
2020/12/15 02:05:14;;;;;;;39.55;19.05;;;;;;;2.62;100.00;101309.62;1812648;79;21048;-56
2020/12/15 02:07:44;;;;;;;44.18;19.60;;;;;;;2.61;100.00;101318.45;1783210;79;20986;-57
2020/12/15 02:10:11;;;;;;;46.23;18.23;;;;;;;2.60;100.00;101315.34;1783813;79;21002;-56
2020/12/15 02:12:53;;;;;;;50.40;19.45;;;;;;;2.58;100.00;101338.73;1813047;79;21466;-57
2020/12/15 02:15:21;;;;;;;44.75;19.30;;;;;;;2.56;100.00;101331.22;1814916;79;21470;-56
2020/12/15 02:17:51;;;;;;;42.60;19.17;;;;;;;2.55;100.00;101329.86;1813916;79;21006;-56
2020/12/15 02:20:20;;;;;;;41.68;18.90;;;;;;;2.56;100.00;101331.64;1812476;79;20988;-56
2020/12/15 02:22:49;;;;;;;45.00;17.90;;;;;;;2.54;100.00;101332.97;1792156;79;21128;-56
2020/12/15 02:25:17;;;;;;;42.30;18.52;;;;;;;2.53;100.00;101321.90;1814867;79;21164;-56
2020/12/15 02:27:45;;;;;;;40.28;18.80;;;;;;;2.53;100.00;101307.34;1814834;79;21477;-56
2020/12/15 02:30:13;;;;;;;40.03;18.40;;;;;;;2.53;100.00;101306.02;1814779;79;21057;-56
2020/12/15 02:32:41;;;;;;;47.23;20.25;;;;;;;2.52;100.00;101316.16;1814842;79;20990;-56
2020/12/15 02:35:10;;;;;;;45.60;20.30;;;;;;;2.51;100.00;101318.36;1814792;79;21112;-56
2020/12/15 02:37:38;;;;;;;48.40;19.77;;;;;;;2.51;100.00;101326.30;1814789;79;21149;-56
2020/12/15 02:40:07;;;;;;;38.80;18.05;;;;;;;2.50;100.00;101329.82;1814734;79;21190;-57
2020/12/15 02:42:37;;;;;;;43.65;18.80;;;;;;;2.47;100.00;101333.77;1800577;79;21025;-56
2020/12/15 02:45:05;;;;;;;41.77;17.70;;;;;;;2.46;100.00;101338.62;1814801;79;20911;-57
2020/12/15 02:47:33;;;;;;;40.17;19.27;;;;;;;2.48;100.00;101338.19;1814946;78;22263;-56
2020/12/15 02:50:01;;;;;;;39.78;18.70;;;;;;;2.46;100.00;101322.73;1814912;79;21077;-56
2020/12/15 02:52:29;;;;;;;42.62;19.35;;;;;;;2.45;100.00;101342.14;1784126;79;21980;-57
2020/12/15 02:54:57;;;;;;;42.62;18.52;;;;;;;2.43;100.00;101335.95;1814720;79;21164;-56
2020/12/15 02:57:27;;;;;;;46.23;19.80;;;;;;;2.42;100.00;101342.13;1814696;78;21105;-56
2020/12/15 02:59:56;;;;;;;40.65;18.55;;;;;;;2.42;100.00;101330.21;1814879;79;20995;-56
2020/12/15 03:02:24;;;;;;;36.58;17.45;;;;;;;2.40;100.00;101330.19;1814797;79;21049;-55
2020/12/15 03:04:54;;;;;;;36.35;16.73;;;;;;;2.40;100.00;101342.55;1814544;78;21332;-56
2020/12/15 03:07:22;;;;;;;35.83;17.40;;;;;;;2.39;100.00;101326.22;1814542;79;21093;-56
2020/12/15 03:09:51;;;;;;;40.67;18.05;;;;;;;2.40;100.00;101327.53;1814329;79;21148;-56
2020/12/15 03:12:21;;;;;;;43.35;18.12;;;;;;;2.44;100.00;101336.40;1813813;79;21210;-56
2020/12/15 03:14:51;;;;;;;43.33;18.37;;;;;;;2.45;100.00;101328.91;1814367;79;20970;-56
2020/12/15 03:17:20;;;;;;;35.25;17.65;;;;;;;2.46;100.00;101324.52;1814277;79;22092;-55
2020/12/15 03:19:49;;;;;;;41.13;16.30;;;;;;;2.47;100.00;101330.25;1814218;79;21109;-56
2020/12/15 03:22:17;;;;;;;36.25;17.12;;;;;;;2.47;100.00;101358.92;1814172;79;21129;-56
2020/12/15 03:24:46;;;;;;;44.98;17.07;;;;;;;2.45;100.00;101338.17;1814235;79;20907;-57
2020/12/15 03:27:16;;;;;;;37.48;17.23;;;;;;;2.44;100.00;101331.11;1814235;79;21053;-57
2020/12/15 03:29:44;;;;;;;34.88;15.03;;;;;;;2.45;100.00;101326.27;1814207;79;21350;-56
2020/12/15 03:32:12;;;;;;;40.40;17.57;;;;;;;2.47;100.00;101323.19;1814141;79;21061;-55
2020/12/15 03:34:40;;;;;;;41.13;17.45;;;;;;;2.50;100.00;101345.70;1814203;79;20979;-56
2020/12/15 03:37:08;;;;;;;36.68;17.07;;;;;;;2.48;100.00;101342.16;1811862;79;21110;-55
2020/12/15 03:39:37;;;;;;;39.50;16.85;;;;;;;2.45;100.00;101347.44;1732772;82;21165;-56
2020/12/15 03:42:07;;;;;;;37.88;16.73;;;;;;;2.44;100.00;101354.92;1768884;81;21435;-56
2020/12/15 03:44:35;;;;;;;42.03;17.52;;;;;;;2.44;100.00;101357.58;1733141;82;21075;-56
2020/12/15 03:47:08;;;;;;;37.08;16.55;;;;;;;2.44;100.00;101362.87;1768544;81;21177;-56
2020/12/15 03:49:35;;;;;;;38.75;16.95;;;;;;;2.43;100.00;101344.80;1768922;81;21121;-56
2020/12/15 03:52:04;;;;;;;45.05;16.67;;;;;;;2.45;100.00;101361.12;1733308;82;21510;-56
2020/12/15 03:54:31;;;;;;;41.08;17.42;;;;;;;2.42;100.00;101358.00;1769094;81;22457;-56
2020/12/15 03:57:24;;;;;;;38.67;16.03;;;;;;;2.47;100.00;101368.19;1873150;76;22645;-56
2020/12/15 04:00:00;;;;;;;39.00;16.67;;;;;;;2.41;100.00;101368.14;1839854;78;21173;-56
2020/12/15 04:02:31;;;;;;;42.17;17.62;;;;;;;2.42;100.00;101384.02;1840996;78;21233;-57
2020/12/15 04:05:00;;;;;;;41.92;17.10;;;;;;;2.42;100.00;101375.20;1840994;78;20990;-56
2020/12/15 04:07:28;;;;;;;44.73;17.32;;;;;;;2.42;100.00;101373.88;1841029;78;20997;-56
2020/12/15 04:09:56;;;;;;;47.27;19.07;;;;;;;2.40;100.00;101372.53;1841014;78;20926;-56
2020/12/15 04:12:24;;;;;;;40.43;16.67;;;;;;;2.40;100.00;101371.66;1841123;78;20910;-56
2020/12/15 04:14:52;;;;;;;44.15;19.10;;;;;;;2.39;100.00;101382.67;1840934;78;21622;-57
2020/12/15 04:17:19;;;;;;;38.15;15.75;;;;;;;2.38;100.00;101381.34;1841042;77;20978;-56
2020/12/15 04:19:48;;;;;;;41.48;18.27;;;;;;;2.34;100.00;101374.27;1841094;78;21608;-56
2020/12/15 04:22:15;;;;;;;47.55;18.15;;;;;;;2.35;100.00;101374.71;1841025;78;21060;-56
2020/12/15 04:24:45;;;;;;;40.40;17.05;;;;;;;2.35;100.00;101376.03;1840248;78;20937;-56
2020/12/15 04:27:12;;;;;;;39.55;17.45;;;;;;;2.35;100.00;101385.30;1841032;78;21340;-56
2020/12/15 04:29:40;;;;;;;36.05;16.15;;;;;;;2.33;100.00;101393.21;1840896;78;21116;-56
2020/12/15 04:32:09;;;;;;;43.33;16.62;;;;;;;2.32;100.00;101405.09;1840756;78;21009;-56
2020/12/15 04:34:39;;;;;;;47.75;17.40;;;;;;;2.29;100.00;101408.16;1837715;78;21151;-56
2020/12/15 04:37:07;;;;;;;48.45;17.85;;;;;;;2.26;100.00;101413.42;1834464;78;21747;-56
2020/12/15 04:39:37;;;;;;;46.53;18.80;;;;;;;2.24;100.00;101425.75;1827217;78;22262;-56
2020/12/15 04:42:05;;;;;;;48.33;19.48;;;;;;;2.23;100.00;101404.14;1828056;78;20988;-56
2020/12/15 04:44:36;;;;;;;44.83;17.80;;;;;;;2.25;100.00;101415.63;1828117;78;21110;-56
2020/12/15 04:47:18;;;;;;;46.42;18.48;;;;;;;2.24;100.00;101420.47;1828055;78;21031;-56
2020/12/15 04:50:01;;;;;;;45.15;18.67;;;;;;;2.24;100.00;101425.75;1827337;78;21165;-56
2020/12/15 04:52:58;;;;;;;46.23;18.80;;;;;;;2.25;100.00;101405.04;1827983;78;21332;-56
2020/12/15 04:55:47;;;;;;;45.87;18.50;;;;;;;2.28;100.00;101431.52;1873138;76;22647;-56
2020/12/15 04:58:20;;;;;;;56.58;19.35;;;;;;;2.24;100.00;101414.30;1841135;78;20878;-56
2020/12/15 05:00:49;;;;;;;57.20;19.60;;;;;;;2.25;100.00;101416.95;1841153;78;22285;-55
2020/12/15 05:03:21;;;;;;;55.15;20.17;;;;;;;2.30;100.00;101448.76;1838626;78;20938;-56
2020/12/15 05:05:50;;;;;;;49.33;19.25;;;;;;;2.30;100.00;101448.76;1841076;78;21005;-56
2020/12/15 05:08:19;;;;;;;47.70;19.50;;;;;;;2.29;100.00;101442.56;1841154;78;21599;-57
2020/12/15 05:10:49;;;;;;;61.15;19.67;;;;;;;2.29;100.00;101438.59;1840563;78;20930;-57
2020/12/15 05:13:29;;;;;;;47.67;19.10;;;;;;;2.32;100.00;101472.57;1829572;78;21375;-57
2020/12/15 05:15:57;;;;;;;49.35;19.50;;;;;;;2.31;100.00;101433.75;1840989;78;20938;-56
2020/12/15 05:18:26;;;;;;;50.90;19.80;;;;;;;2.34;100.00;101441.75;1836898;78;21155;-56
2020/12/15 05:20:56;;;;;;;51.70;19.60;;;;;;;2.35;100.00;101465.56;1841036;78;20990;-57
2020/12/15 05:23:25;;;;;;;44.80;18.12;;;;;;;2.35;100.00;101448.81;1840806;78;20933;-57
2020/12/15 05:26:04;;;;;;;49.18;17.98;;;;;;;2.35;100.00;101460.72;1840601;78;21183;-57
2020/12/15 05:28:39;;;;;;;41.65;16.70;;;;;;;2.33;100.00;101460.70;1839832;78;21061;-57
2020/12/15 05:31:07;;;;;;;44.13;16.80;;;;;;;2.31;100.00;101462.86;1841046;78;20887;-56
2020/12/15 05:33:51;;;;;;;45.48;16.85;;;;;;;2.29;100.00;101474.31;1786891;78;21103;-56
2020/12/15 05:36:22;;;;;;;46.15;17.20;;;;;;;2.28;100.00;101471.22;1838331;77;21130;-56
2020/12/15 05:39:08;;;;;;;43.75;16.57;;;;;;;2.28;100.00;101480.48;1825342;78;21375;-56
2020/12/15 05:42:01;;;;;;;43.97;16.47;;;;;;;2.34;100.00;101481.45;1873185;76;22743;-57
2020/12/15 05:44:30;;;;;;;49.48;18.62;;;;;;;2.28;100.00;101499.01;1838388;77;20914;-56
2020/12/15 05:47:05;;;;;;;43.50;17.17;;;;;;;2.30;100.00;101495.07;1841096;78;22213;-57
2020/12/15 05:49:37;;;;;;;46.95;16.60;;;;;;;2.31;100.00;101478.73;1841319;78;21005;-57
2020/12/15 05:52:09;;;;;;;51.58;19.05;;;;;;;2.29;100.00;101470.34;1840747;78;21023;-56
2020/12/15 05:54:36;;;;;;;59.40;20.32;;;;;;;2.28;100.00;101484.91;1841158;78;20937;-57
2020/12/15 05:57:06;;;;;;;60.03;19.20;;;;;;;2.29;100.00;101503.43;1841019;78;20993;-57
2020/12/15 05:59:34;;;;;;;63.23;22.00;;;;;;;2.26;100.00;101510.02;1841081;78;21528;-57
2020/12/15 06:02:06;;;;;;;62.43;21.37;;;;;;;2.23;100.00;101518.37;1841155;78;21552;-57
2020/12/15 06:04:38;;;;;;;58.42;20.43;;;;;;;2.22;100.00;101506.88;1840991;78;20981;-56
2020/12/15 06:07:07;;;;;;;59.75;21.35;;;;;;;2.20;100.00;101519.21;1841092;78;21573;-57
2020/12/15 06:09:36;;;;;;;55.73;21.10;;;;;;;2.18;100.00;101520.05;1841051;78;21546;-58
2020/12/15 06:12:04;;;;;;;60.88;21.42;;;;;;;2.18;100.00;101506.82;1841041;78;21175;-56
2020/12/15 06:14:32;;;;;;;66.45;22.20;;;;;;;2.18;100.00;101507.73;1840833;78;21004;-56
2020/12/15 06:17:00;;;;;;;68.70;21.95;;;;;;;2.20;100.00;101511.27;1840981;78;21049;-57
2020/12/15 06:19:30;;;;;;;67.15;22.82;;;;;;;2.19;100.00;101509.50;1840931;78;20918;-56
2020/12/15 06:21:59;;;;;;;61.50;20.88;;;;;;;2.21;100.00;101518.76;1841129;78;21448;-58
2020/12/15 06:24:30;;;;;;;71.20;23.32;;;;;;;2.21;100.00;101513.05;1840974;78;22318;-57
2020/12/15 06:27:01;;;;;;;71.72;21.37;;;;;;;2.18;100.00;101505.50;1840976;78;20938;-57
2020/12/15 06:29:31;;;;;;;76.45;22.87;;;;;;;2.19;100.00;101530.67;1841065;78;21588;-57
2020/12/15 06:32:00;;;;;;;71.30;21.77;;;;;;;2.14;100.00;101512.08;1840906;78;21001;-56
2020/12/15 06:34:31;;;;;;;68.57;20.70;;;;;;;2.14;100.00;101512.53;1841145;78;21477;-56
2020/12/15 06:36:59;;;;;;;77.40;24.55;;;;;;;2.13;100.00;101557.93;1835033;78;22179;-57
2020/12/15 06:39:28;;;;;;;70.92;21.00;;;;;;;2.09;100.00;101522.14;1828060;78;21050;-56
2020/12/15 06:42:00;;;;;;;71.82;21.45;;;;;;;2.06;100.00;101524.75;1830906;78;21062;-56
2020/12/15 06:44:34;;;;;;;75.72;23.73;;;;;;;2.04;100.00;101517.23;1831311;78;20885;-56
2020/12/15 06:47:04;;;;;;;79.07;22.37;;;;;;;2.04;100.00;101521.20;1831274;78;21121;-57
2020/12/15 06:49:37;;;;;;;66.70;19.70;;;;;;;2.03;100.00;101512.81;1831239;78;21174;-57
2020/12/15 06:52:06;;;;;;;66.33;19.17;;;;;;;2.00;100.00;101533.08;1830800;78;20984;-56
2020/12/15 06:57:12;;;;;;;72.20;20.40;;;;;;;2.02;100.00;101541.05;1873203;76;22643;-57
2020/12/15 06:59:40;;;;;;;61.98;18.82;;;;;;;1.95;100.00;101541.81;1837973;78;20958;-56
2020/12/15 07:02:11;;;;;;;70.50;20.55;;;;;;;1.95;100.00;101555.94;1765228;80;21382;-57
2020/12/15 07:04:46;;;;;;;66.47;20.65;;;;;;;1.95;100.00;101551.97;1749876;81;20951;-56
2020/12/15 07:07:15;;;;;;;63.15;19.35;;;;;;;1.97;100.00;101530.81;1771936;80;20958;-56
2020/12/15 07:09:43;;;;;;;51.75;15.53;;;;;;;1.98;100.00;101529.52;1774147;80;21556;-56
2020/12/15 07:12:14;;;;;;;58.38;16.23;;;;;;;2.02;100.00;101529.56;1769382;80;21089;-56
2020/12/15 07:14:49;;;;;;;50.85;15.48;;;;;;;2.02;100.00;101550.72;1764641;80;22249;-56
2020/12/15 07:17:17;;;;;;;50.98;16.82;;;;;;;2.03;100.00;101541.92;1786932;80;20994;-57
2020/12/15 07:19:45;;;;;;;52.70;16.20;;;;;;;2.02;100.00;101545.43;1787083;80;21025;-56
2020/12/15 07:22:13;;;;;;;50.65;15.43;;;;;;;2.02;100.00;101548.08;1787146;80;20931;-56
2020/12/15 07:24:40;;;;;;;44.42;15.38;;;;;;;2.00;100.00;101560.84;1787201;80;21049;-56
2020/12/15 07:27:08;;;;;;;46.90;15.70;;;;;;;2.02;100.00;101544.11;1787102;80;21344;-56
2020/12/15 07:29:36;;;;;;;48.35;16.02;;;;;;;2.04;100.00;101554.27;1787147;80;21030;-56
2020/12/15 07:32:04;;;;;;;48.48;16.48;;;;;;;2.04;100.00;101546.34;1787115;80;21081;-56
2020/12/15 07:34:31;;;;;;;51.68;16.65;;;;;;;2.00;100.00;101582.47;1787157;80;20962;-57
2020/12/15 07:37:00;;;;;;;57.95;17.82;;;;;;;1.99;100.00;101567.46;1772686;80;21089;-57
2020/12/15 07:39:28;;;;;;;49.80;15.80;;;;;;;1.96;100.00;101563.00;1756169;81;21202;-56
2020/12/15 07:42:00;;;;;;;67.42;17.07;;;;;;;1.93;100.00;101588.52;1756023;81;21203;-57
2020/12/15 07:44:30;;;;;;;62.75;16.05;;;;;;;1.91;100.00;101583.22;1752531;81;21069;-57
2020/12/15 07:46:57;;;;;;;45.35;15.25;;;;;;;1.89;100.00;101575.70;1756055;81;21583;-57
2020/12/15 07:49:25;;;;;;;54.45;15.85;;;;;;;1.91;100.00;101564.70;1755960;81;21180;-56
2020/12/15 07:51:53;;;;;;;52.45;15.93;;;;;;;1.94;100.00;101581.94;1756035;81;21193;-56
2020/12/15 07:54:23;;;;;;;52.95;18.48;;;;;;;1.92;100.00;101561.19;1755855;81;21069;-56
2020/12/15 07:56:52;;;;;;;55.38;17.07;;;;;;;1.93;100.00;101581.48;1752961;81;21081;-61
2020/12/15 07:59:20;;;;;;;52.20;17.15;;;;;;;1.94;100.00;101603.09;1751957;81;21077;-56
2020/12/15 08:01:47;;;;;;;54.90;17.12;;;;;;;1.92;100.00;101595.58;1751977;81;21100;-56
2020/12/15 08:04:15;;;;;;;50.52;16.48;;;;;;;1.91;100.00;101582.31;1728158;83;22224;-57
2020/12/15 08:06:46;;;;;;;47.85;16.95;;;;;;;1.91;100.00;101601.73;1740412;82;21082;-56
2020/12/15 08:09:16;;;;;;;45.05;13.85;;;;;;;1.91;100.00;101599.09;1727577;83;21199;-57
2020/12/15 08:11:47;;;;;;;36.13;12.10;;;;;;;1.90;100.00;101598.63;1739974;82;21022;-56
2020/12/15 08:14:16;;;;;;;44.20;14.58;;;;;;;1.89;100.00;101600.83;1727553;83;21144;-56
2020/12/15 08:16:47;;;;;;;41.58;14.75;;;;;;;1.89;100.00;101603.47;1739869;82;21165;-56
2020/12/15 08:19:16;;;;;;;44.10;14.00;;;;;;;1.92;100.00;101589.38;1727313;83;21611;-56
2020/12/15 08:21:50;;;;;;;37.38;13.35;;;;;;;1.91;100.00;101602.15;1740068;82;21054;-56
2020/12/15 08:24:26;;;;;;;41.50;15.00;;;;;;;1.90;100.00;101582.77;1727508;83;21042;-57
2020/12/15 08:26:52;;;;;;;;;;;;;;;1.93;100.00;101591.16;1742610;82;21079;-57
2020/12/15 08:29:20;;;;;;;48.73;13.83;;;;;;;1.92;100.00;101583.67;1740120;82;21189;-56
2020/12/15 08:31:48;;;;;;;56.20;16.50;;;;;;;1.91;100.00;101593.80;1727821;81;21156;-56
2020/12/15 08:34:18;;;;;;;59.50;20.05;;;;;;;1.87;100.00;101573.44;1740084;82;21584;-56
2020/12/15 08:36:50;;;;;;;62.23;18.92;;;;;;;1.89;100.00;101579.67;1750587;81;21602;-57
2020/12/15 08:39:20;;;;;;;66.40;19.45;;;;;;;1.93;100.00;101568.26;1757711;81;21121;-56
2020/12/15 08:41:55;;;;;;;63.52;19.57;;;;;;;1.96;100.00;101572.27;1768976;81;21200;-57
2020/12/15 08:44:23;;;;;;;68.47;21.17;;;;;;;2.00;100.00;101547.62;1757552;81;21085;-56
2020/12/15 08:46:53;;;;;;;72.25;20.20;;;;;;;2.06;100.00;101567.09;1768897;80;21122;-56
2020/12/15 08:49:22;;;;;;;69.20;20.85;;;;;;;2.08;100.00;101570.64;1757551;81;21061;-56
2020/12/15 08:51:52;;;;;;;65.50;19.90;;;;;;;2.10;100.00;101568.89;1768945;80;21123;-56
2020/12/15 08:54:20;;;;;;;59.08;18.23;;;;;;;2.13;100.00;101584.84;1757655;81;22141;-56
2020/12/15 08:56:50;;;;;;;60.73;18.73;;;;;;;2.11;100.00;101570.70;1772895;80;21146;-57
2020/12/15 08:59:20;;;;;;;69.87;19.90;;;;;;;2.10;100.00;101570.22;1759638;81;21145;-56
2020/12/15 09:01:52;;;;;;;57.80;19.37;;;;;;;2.06;100.00;101571.05;1776601;80;21126;-57
2020/12/15 09:04:26;;;;;;;56.30;19.55;;;;;;;2.06;100.00;101555.18;1733055;81;21066;-56
2020/12/15 09:06:56;;;;;;;64.27;20.62;;;;;;;2.07;100.00;101548.60;1776686;80;21188;-57
2020/12/15 09:09:32;;;;;;;67.82;21.48;;;;;;;2.10;100.00;101550.38;1759620;81;20936;-57
2020/12/15 09:12:04;;;;;;;63.68;19.40;;;;;;;2.13;100.00;101546.48;1776499;80;21075;-57
2020/12/15 09:14:31;;;;;;;66.53;21.20;;;;;;;2.14;100.00;101558.38;1759407;81;21042;-56
2020/12/15 09:16:59;;;;;;;70.80;22.67;;;;;;;2.16;100.00;101570.32;1776326;80;21147;-56
2020/12/15 09:19:27;;;;;;;66.55;22.25;;;;;;;2.17;100.00;101562.84;1759608;81;21391;-56
2020/12/15 09:22:02;;;;;;;71.75;22.82;;;;;;;2.17;100.00;101553.58;1776356;80;21190;-57
2020/12/15 09:24:43;;;;;;;70.30;22.70;;;;;;;2.20;100.00;101560.23;1759699;81;21082;-57
2020/12/15 09:27:21;;;;;;;72.65;22.15;;;;;;;2.22;100.00;101554.52;1776576;80;21063;-57
2020/12/15 09:29:48;;;;;;;63.83;22.02;;;;;;;2.25;100.00;101548.39;1759563;81;21158;-57
2020/12/15 09:34:53;;;;;;;62.83;23.07;;;;;;;2.38;100.00;101545.45;1887941;76;22658;-56
2020/12/15 09:37:21;;;;;;;66.33;22.25;;;;;;;2.35;100.00;101554.68;1848448;77;21028;-57
2020/12/15 09:39:50;;;;;;;62.03;20.57;;;;;;;2.36;100.00;101543.22;1849441;77;21350;-56
2020/12/15 09:42:20;;;;;;;50.17;18.23;;;;;;;2.34;100.00;101554.23;1772981;81;21075;-56
2020/12/15 09:44:47;;;;;;;57.95;17.75;;;;;;;2.32;100.00;101544.03;1788305;80;21059;-56
2020/12/15 09:47:15;;;;;;;51.02;17.62;;;;;;;2.31;100.00;101544.90;1788218;80;21007;-56
2020/12/15 09:49:43;;;;;;;51.20;18.57;;;;;;;2.29;100.00;101550.19;1773145;81;21008;-57
2020/12/15 09:52:11;;;;;;;61.15;18.27;;;;;;;2.31;100.00;101558.13;1788268;80;21700;-57
2020/12/15 09:54:40;;;;;;;53.58;17.90;;;;;;;2.34;100.00;101569.66;1773104;81;21579;-57
2020/12/15 09:57:07;;;;;;;52.90;18.67;;;;;;;2.38;100.00;101563.98;1788188;80;21008;-56
2020/12/15 09:59:35;;;;;;;49.00;17.27;;;;;;;2.41;100.00;101561.36;1773128;80;21047;-56
2020/12/15 10:02:03;;;;;;;53.08;18.00;;;;;;;2.44;100.00;101575.95;1788248;80;21084;-56
2020/12/15 10:04:31;;;;;;;51.85;17.55;;;;;;;2.48;99.92;101569.81;1788245;80;21294;-57
2020/12/15 10:06:59;;;;;;;54.58;17.17;;;;;;;2.49;100.00;101566.30;1788203;80;21114;-56
2020/12/15 10:09:26;;;;;;;49.13;16.40;;;;;;;2.53;100.00;101585.31;1788213;80;21047;-57
2020/12/15 10:11:54;;;;;;;47.62;16.30;;;;;;;2.55;99.79;101563.75;1773045;81;21083;-57
2020/12/15 10:14:22;;;;;;;49.73;17.25;;;;;;;2.55;99.68;101586.25;1788152;80;21132;-57
2020/12/15 10:16:49;;;;;;;48.83;17.67;;;;;;;2.55;99.75;101566.81;1773123;81;21691;-57
2020/12/15 10:19:17;;;;;;;47.10;16.62;;;;;;;2.56;99.96;101565.52;1788155;80;20991;-56
2020/12/15 10:21:45;;;;;;;60.25;20.20;;;;;;;2.58;100.00;101558.48;1773120;80;21047;-56
2020/12/15 10:24:14;;;;;;;49.85;19.67;;;;;;;2.61;100.00;101557.61;1788209;80;20952;-57
2020/12/15 10:26:42;;;;;;;56.88;18.17;;;;;;;2.64;100.00;101577.95;1773158;81;20948;-58
2020/12/15 10:29:09;;;;;;;47.25;18.52;;;;;;;2.66;100.00;101553.27;1788170;80;21542;-56
2020/12/15 10:31:37;;;;;;;53.28;17.37;;;;;;;2.71;100.00;101564.80;1788442;80;21196;-56
2020/12/15 10:34:04;;;;;;;55.52;17.35;;;;;;;2.73;100.00;101566.12;1774658;80;21079;-56
2020/12/15 10:36:38;;;;;;;50.12;16.42;;;;;;;2.72;100.00;101557.72;1789513;80;21162;-57
2020/12/15 10:39:06;;;;;;;49.98;17.45;;;;;;;2.70;100.00;101552.42;1792475;80;21156;-57
2020/12/15 10:41:37;;;;;;;41.85;17.17;;;;;;;2.71;100.00;101551.55;1792423;80;21423;-57
2020/12/15 10:44:03;;;;;;;56.02;17.40;;;;;;;2.73;100.00;101550.23;1792127;79;21019;-57
2020/12/15 10:46:31;;;;;;;39.90;15.25;;;;;;;2.76;100.00;101554.68;1763234;80;21082;-57
2020/12/15 10:48:58;;;;;;;44.05;17.70;;;;;;;2.77;100.00;101553.39;1791868;80;21097;-57
2020/12/15 10:51:28;;;;;;;41.40;16.95;;;;;;;2.76;100.00;101549.38;1791671;80;21191;-57
2020/12/15 10:53:55;;;;;;;46.48;15.45;;;;;;;2.75;100.00;101576.29;1791981;80;21193;-56
2020/12/15 10:56:23;;;;;;;52.05;18.45;;;;;;;2.75;100.00;101552.45;1791765;80;20916;-56
2020/12/15 10:58:51;;;;;;;52.10;17.67;;;;;;;2.75;100.00;101555.09;1791877;80;20940;-56
2020/12/15 11:01:18;;;;;;;47.05;16.65;;;;;;;2.78;100.00;101547.22;1791773;80;21098;-57
2020/12/15 11:03:46;;;;;;;40.58;17.50;;;;;;;2.82;100.00;101555.64;1791857;80;21169;-56
2020/12/15 11:06:13;;;;;;;40.35;16.82;;;;;;;2.86;100.00;101544.20;1791764;80;22367;-56
2020/12/15 11:08:41;;;;;;;43.38;17.02;;;;;;;2.87;100.00;101543.73;1791760;79;20947;-56
2020/12/15 11:11:12;;;;;;;49.73;18.45;;;;;;;2.85;100.00;101554.77;1791792;80;21042;-56
2020/12/15 11:13:39;;;;;;;44.08;17.50;;;;;;;2.84;100.00;101552.56;1791738;80;21302;-55
2020/12/15 11:16:07;;;;;;;48.98;17.27;;;;;;;2.84;100.00;101539.32;1791940;80;21461;-56
2020/12/15 11:18:35;;;;;;;46.42;17.37;;;;;;;2.86;100.00;101534.02;1791828;80;21475;-55
2020/12/15 11:21:02;;;;;;;42.73;16.95;;;;;;;2.87;100.00;101529.17;1791816;80;21179;-56
2020/12/15 11:23:30;;;;;;;45.48;18.00;;;;;;;2.86;100.00;101537.57;1791789;79;21145;-57
2020/12/15 11:25:59;;;;;;;43.68;16.52;;;;;;;2.90;100.00;101542.47;1789271;80;21157;-57